sensor_id;sensor_type;location;lat;lon;timestamp;P1;durP1;ratioP1;P2;durP2;ratioP2
4323;SDS011;2175;51.018;6.994;2023-07-13T00:00:02;7.40;;;2.97;;
4323;SDS011;2175;51.018;6.994;2023-07-13T00:02:33;4.73;;;2.20;;
4323;SDS011;2175;51.018;6.994;2023-07-13T00:04:59;8.47;;;2.53;;
4323;SDS011;2175;51.018;6.994;2023-07-13T00:07:24;8.53;;;2.67;;
4323;SDS011;2175;51.018;6.994;2023-07-13T00:09:50;6.60;;;2.70;;
4323;SDS011;2175;51.018;6.994;2023-07-13T00:12:27;8.20;;;2.37;;
4323;SDS011;2175;51.018;6.994;2023-07-13T00:14:55;7.53;;;2.47;;
4323;SDS011;2175;51.018;6.994;2023-07-13T00:17:23;5.00;;;2.13;;
4323;SDS011;2175;51.018;6.994;2023-07-13T00:19:49;10.57;;;2.50;;
4323;SDS011;2175;51.018;6.994;2023-07-13T00:22:15;6.30;;;2.33;;
4323;SDS011;2175;51.018;6.994;2023-07-13T00:24:43;7.20;;;2.87;;
4323;SDS011;2175;51.018;6.994;2023-07-13T00:27:09;5.37;;;2.17;;
4323;SDS011;2175;51.018;6.994;2023-07-13T00:29:35;8.60;;;2.60;;
4323;SDS011;2175;51.018;6.994;2023-07-13T00:32:02;7.40;;;2.30;;
4323;SDS011;2175;51.018;6.994;2023-07-13T00:34:29;7.23;;;2.40;;
4323;SDS011;2175;51.018;6.994;2023-07-13T00:36:55;7.20;;;3.17;;
4323;SDS011;2175;51.018;6.994;2023-07-13T00:39:21;8.00;;;2.20;;
4323;SDS011;2175;51.018;6.994;2023-07-13T00:41:47;5.87;;;2.10;;
4323;SDS011;2175;51.018;6.994;2023-07-13T00:44:13;7.07;;;2.33;;
4323;SDS011;2175;51.018;6.994;2023-07-13T00:46:40;4.87;;;2.20;;
4323;SDS011;2175;51.018;6.994;2023-07-13T00:49:07;9.60;;;2.73;;
4323;SDS011;2175;51.018;6.994;2023-07-13T00:51:39;6.77;;;2.90;;
4323;SDS011;2175;51.018;6.994;2023-07-13T00:54:09;4.70;;;2.23;;
4323;SDS011;2175;51.018;6.994;2023-07-13T00:56:38;7.07;;;2.30;;
4323;SDS011;2175;51.018;6.994;2023-07-13T00:59:06;8.23;;;2.40;;
4323;SDS011;2175;51.018;6.994;2023-07-13T01:01:35;4.57;;;2.00;;
4323;SDS011;2175;51.018;6.994;2023-07-13T01:04:02;4.77;;;2.07;;
4323;SDS011;2175;51.018;6.994;2023-07-13T01:06:28;7.87;;;2.70;;
4323;SDS011;2175;51.018;6.994;2023-07-13T01:08:54;6.83;;;2.60;;
4323;SDS011;2175;51.018;6.994;2023-07-13T01:11:21;7.27;;;2.73;;
4323;SDS011;2175;51.018;6.994;2023-07-13T01:13:47;7.60;;;2.60;;
4323;SDS011;2175;51.018;6.994;2023-07-13T01:16:22;6.30;;;2.37;;
4323;SDS011;2175;51.018;6.994;2023-07-13T01:18:50;6.30;;;2.17;;
4323;SDS011;2175;51.018;6.994;2023-07-13T01:21:16;8.93;;;2.77;;
4323;SDS011;2175;51.018;6.994;2023-07-13T01:23:43;11.47;;;2.73;;
4323;SDS011;2175;51.018;6.994;2023-07-13T01:26:09;6.77;;;2.57;;
4323;SDS011;2175;51.018;6.994;2023-07-13T01:28:36;9.63;;;2.10;;
4323;SDS011;2175;51.018;6.994;2023-07-13T01:31:03;5.20;;;2.10;;
4323;SDS011;2175;51.018;6.994;2023-07-13T01:33:29;7.00;;;2.50;;
4323;SDS011;2175;51.018;6.994;2023-07-13T01:35:55;8.57;;;2.37;;
4323;SDS011;2175;51.018;6.994;2023-07-13T01:38:23;7.00;;;2.17;;
4323;SDS011;2175;51.018;6.994;2023-07-13T01:40:50;7.90;;;2.37;;
4323;SDS011;2175;51.018;6.994;2023-07-13T01:43:16;9.00;;;2.57;;
4323;SDS011;2175;51.018;6.994;2023-07-13T01:45:42;6.03;;;2.07;;
4323;SDS011;2175;51.018;6.994;2023-07-13T01:48:09;4.10;;;2.10;;
4323;SDS011;2175;51.018;6.994;2023-07-13T01:50:34;11.80;;;2.60;;
4323;SDS011;2175;51.018;6.994;2023-07-13T01:53:00;9.47;;;2.47;;
4323;SDS011;2175;51.018;6.994;2023-07-13T01:55:27;10.93;;;2.50;;
4323;SDS011;2175;51.018;6.994;2023-07-13T01:57:53;6.60;;;2.40;;
4323;SDS011;2175;51.018;6.994;2023-07-13T02:00:19;6.63;;;2.00;;
4323;SDS011;2175;51.018;6.994;2023-07-13T02:02:45;9.70;;;2.67;;
4323;SDS011;2175;51.018;6.994;2023-07-13T02:05:11;8.20;;;2.80;;
4323;SDS011;2175;51.018;6.994;2023-07-13T02:07:37;11.83;;;2.30;;
4323;SDS011;2175;51.018;6.994;2023-07-13T02:10:04;6.33;;;2.10;;
4323;SDS011;2175;51.018;6.994;2023-07-13T02:12:31;9.00;;;2.17;;
4323;SDS011;2175;51.018;6.994;2023-07-13T02:14:56;14.17;;;2.67;;
4323;SDS011;2175;51.018;6.994;2023-07-13T02:17:22;7.13;;;2.50;;
4323;SDS011;2175;51.018;6.994;2023-07-13T02:19:48;7.47;;;2.70;;
4323;SDS011;2175;51.018;6.994;2023-07-13T02:22:13;9.73;;;2.47;;
4323;SDS011;2175;51.018;6.994;2023-07-13T02:24:39;8.03;;;2.23;;
4323;SDS011;2175;51.018;6.994;2023-07-13T02:27:06;11.73;;;2.50;;
4323;SDS011;2175;51.018;6.994;2023-07-13T02:29:33;6.37;;;2.10;;
4323;SDS011;2175;51.018;6.994;2023-07-13T02:31:59;8.87;;;2.70;;
4323;SDS011;2175;51.018;6.994;2023-07-13T02:34:24;8.97;;;2.40;;
4323;SDS011;2175;51.018;6.994;2023-07-13T02:36:50;5.00;;;2.30;;
4323;SDS011;2175;51.018;6.994;2023-07-13T02:39:15;8.30;;;2.53;;
4323;SDS011;2175;51.018;6.994;2023-07-13T02:41:41;6.57;;;2.10;;
4323;SDS011;2175;51.018;6.994;2023-07-13T02:44:07;6.67;;;2.53;;
4323;SDS011;2175;51.018;6.994;2023-07-13T02:46:34;6.70;;;2.40;;
4323;SDS011;2175;51.018;6.994;2023-07-13T02:49:01;8.43;;;2.73;;
4323;SDS011;2175;51.018;6.994;2023-07-13T02:51:27;5.20;;;2.33;;
4323;SDS011;2175;51.018;6.994;2023-07-13T02:53:52;5.50;;;2.20;;
4323;SDS011;2175;51.018;6.994;2023-07-13T02:56:25;7.50;;;2.43;;
4323;SDS011;2175;51.018;6.994;2023-07-13T02:58:53;8.20;;;2.73;;
4323;SDS011;2175;51.018;6.994;2023-07-13T03:01:19;6.93;;;2.60;;
4323;SDS011;2175;51.018;6.994;2023-07-13T03:03:46;8.20;;;2.87;;
4323;SDS011;2175;51.018;6.994;2023-07-13T03:06:13;7.30;;;2.90;;
4323;SDS011;2175;51.018;6.994;2023-07-13T03:08:40;7.07;;;2.60;;
4323;SDS011;2175;51.018;6.994;2023-07-13T03:11:07;6.90;;;2.37;;
4323;SDS011;2175;51.018;6.994;2023-07-13T03:13:36;10.70;;;2.83;;
4323;SDS011;2175;51.018;6.994;2023-07-13T03:16:02;9.50;;;3.00;;
4323;SDS011;2175;51.018;6.994;2023-07-13T03:18:28;6.43;;;2.60;;
4323;SDS011;2175;51.018;6.994;2023-07-13T03:20:54;7.43;;;2.30;;
4323;SDS011;2175;51.018;6.994;2023-07-13T03:23:20;5.00;;;2.40;;
4323;SDS011;2175;51.018;6.994;2023-07-13T03:25:46;11.23;;;2.70;;
4323;SDS011;2175;51.018;6.994;2023-07-13T03:28:13;6.30;;;2.00;;
4323;SDS011;2175;51.018;6.994;2023-07-13T03:30:39;6.53;;;2.43;;
4323;SDS011;2175;51.018;6.994;2023-07-13T03:33:05;8.70;;;2.50;;
4323;SDS011;2175;51.018;6.994;2023-07-13T03:35:31;6.27;;;2.30;;
4323;SDS011;2175;51.018;6.994;2023-07-13T03:37:58;6.27;;;2.20;;
4323;SDS011;2175;51.018;6.994;2023-07-13T03:40:24;7.33;;;2.50;;
4323;SDS011;2175;51.018;6.994;2023-07-13T03:42:51;9.10;;;2.43;;
4323;SDS011;2175;51.018;6.994;2023-07-13T03:45:17;4.70;;;2.20;;
4323;SDS011;2175;51.018;6.994;2023-07-13T03:47:43;5.60;;;2.20;;
4323;SDS011;2175;51.018;6.994;2023-07-13T03:50:08;7.97;;;2.63;;
4323;SDS011;2175;51.018;6.994;2023-07-13T03:52:34;5.63;;;2.63;;
4323;SDS011;2175;51.018;6.994;2023-07-13T03:55:00;5.03;;;2.40;;
4323;SDS011;2175;51.018;6.994;2023-07-13T03:57:26;5.07;;;2.27;;
4323;SDS011;2175;51.018;6.994;2023-07-13T03:59:51;6.77;;;2.57;;
4323;SDS011;2175;51.018;6.994;2023-07-13T04:02:17;6.03;;;2.07;;
4323;SDS011;2175;51.018;6.994;2023-07-13T04:04:43;7.33;;;2.40;;
4323;SDS011;2175;51.018;6.994;2023-07-13T04:07:08;9.50;;;2.60;;
4323;SDS011;2175;51.018;6.994;2023-07-13T04:09:35;8.53;;;2.70;;
4323;SDS011;2175;51.018;6.994;2023-07-13T04:12:00;8.87;;;2.60;;
4323;SDS011;2175;51.018;6.994;2023-07-13T04:14:26;6.60;;;2.00;;
4323;SDS011;2175;51.018;6.994;2023-07-13T04:16:52;9.30;;;2.60;;
4323;SDS011;2175;51.018;6.994;2023-07-13T04:19:19;9.67;;;1.90;;
4323;SDS011;2175;51.018;6.994;2023-07-13T04:21:45;7.03;;;2.30;;
4323;SDS011;2175;51.018;6.994;2023-07-13T04:24:11;9.70;;;2.60;;
4323;SDS011;2175;51.018;6.994;2023-07-13T04:26:37;11.30;;;2.67;;
4323;SDS011;2175;51.018;6.994;2023-07-13T04:29:03;8.17;;;2.70;;
4323;SDS011;2175;51.018;6.994;2023-07-13T04:31:30;4.93;;;2.23;;
4323;SDS011;2175;51.018;6.994;2023-07-13T04:33:56;11.13;;;2.90;;
4323;SDS011;2175;51.018;6.994;2023-07-13T04:36:22;4.97;;;2.10;;
4323;SDS011;2175;51.018;6.994;2023-07-13T04:38:47;8.33;;;2.77;;
4323;SDS011;2175;51.018;6.994;2023-07-13T04:41:14;9.27;;;2.57;;
4323;SDS011;2175;51.018;6.994;2023-07-13T04:43:40;7.73;;;2.63;;
4323;SDS011;2175;51.018;6.994;2023-07-13T04:46:07;6.80;;;2.70;;
4323;SDS011;2175;51.018;6.994;2023-07-13T04:48:34;6.93;;;2.37;;
4323;SDS011;2175;51.018;6.994;2023-07-13T04:51:00;12.87;;;3.10;;
4323;SDS011;2175;51.018;6.994;2023-07-13T04:53:27;7.47;;;2.43;;
4323;SDS011;2175;51.018;6.994;2023-07-13T04:55:53;8.13;;;2.70;;
4323;SDS011;2175;51.018;6.994;2023-07-13T04:58:20;8.40;;;3.03;;
4323;SDS011;2175;51.018;6.994;2023-07-13T05:00:46;8.93;;;2.60;;
4323;SDS011;2175;51.018;6.994;2023-07-13T05:03:12;12.20;;;3.00;;
4323;SDS011;2175;51.018;6.994;2023-07-13T05:05:38;12.70;;;3.60;;
4323;SDS011;2175;51.018;6.994;2023-07-13T05:08:04;11.20;;;3.10;;
4323;SDS011;2175;51.018;6.994;2023-07-13T05:10:29;7.57;;;2.37;;
4323;SDS011;2175;51.018;6.994;2023-07-13T05:12:55;8.57;;;2.93;;
4323;SDS011;2175;51.018;6.994;2023-07-13T05:15:21;8.37;;;2.73;;
4323;SDS011;2175;51.018;6.994;2023-07-13T05:17:48;7.17;;;2.60;;
4323;SDS011;2175;51.018;6.994;2023-07-13T05:20:15;10.03;;;3.13;;
4323;SDS011;2175;51.018;6.994;2023-07-13T05:22:42;5.37;;;2.30;;
4323;SDS011;2175;51.018;6.994;2023-07-13T05:25:08;8.90;;;2.80;;
4323;SDS011;2175;51.018;6.994;2023-07-13T05:27:34;11.20;;;3.23;;
4323;SDS011;2175;51.018;6.994;2023-07-13T05:30:01;9.97;;;2.53;;
4323;SDS011;2175;51.018;6.994;2023-07-13T05:32:28;7.47;;;2.60;;
4323;SDS011;2175;51.018;6.994;2023-07-13T05:34:54;12.70;;;3.30;;
4323;SDS011;2175;51.018;6.994;2023-07-13T05:37:20;5.50;;;2.53;;
4323;SDS011;2175;51.018;6.994;2023-07-13T05:39:45;8.80;;;3.20;;
4323;SDS011;2175;51.018;6.994;2023-07-13T05:42:11;9.17;;;3.10;;
4323;SDS011;2175;51.018;6.994;2023-07-13T05:44:36;8.60;;;3.10;;
4323;SDS011;2175;51.018;6.994;2023-07-13T05:47:02;14.23;;;2.93;;
4323;SDS011;2175;51.018;6.994;2023-07-13T05:49:28;5.80;;;2.77;;
4323;SDS011;2175;51.018;6.994;2023-07-13T05:51:55;10.27;;;2.63;;
4323;SDS011;2175;51.018;6.994;2023-07-13T05:54:21;7.17;;;3.00;;
4323;SDS011;2175;51.018;6.994;2023-07-13T05:56:46;11.90;;;3.20;;
4323;SDS011;2175;51.018;6.994;2023-07-13T05:59:12;12.10;;;3.80;;
4323;SDS011;2175;51.018;6.994;2023-07-13T06:01:38;9.03;;;3.07;;
4323;SDS011;2175;51.018;6.994;2023-07-13T06:04:04;8.20;;;3.07;;
4323;SDS011;2175;51.018;6.994;2023-07-13T06:06:29;34.07;;;6.40;;
4323;SDS011;2175;51.018;6.994;2023-07-13T06:08:55;11.10;;;3.20;;
4323;SDS011;2175;51.018;6.994;2023-07-13T06:11:22;9.30;;;3.07;;
4323;SDS011;2175;51.018;6.994;2023-07-13T06:13:50;11.73;;;2.83;;
4323;SDS011;2175;51.018;6.994;2023-07-13T06:16:16;9.53;;;3.07;;
4323;SDS011;2175;51.018;6.994;2023-07-13T06:18:42;8.80;;;3.23;;
4323;SDS011;2175;51.018;6.994;2023-07-13T06:21:12;10.13;;;3.50;;
4323;SDS011;2175;51.018;6.994;2023-07-13T06:23:43;7.07;;;2.97;;
4323;SDS011;2175;51.018;6.994;2023-07-13T06:26:09;8.20;;;2.83;;
4323;SDS011;2175;51.018;6.994;2023-07-13T06:28:35;10.07;;;3.53;;
4323;SDS011;2175;51.018;6.994;2023-07-13T06:31:02;11.03;;;3.80;;
4323;SDS011;2175;51.018;6.994;2023-07-13T06:33:29;9.13;;;3.13;;
4323;SDS011;2175;51.018;6.994;2023-07-13T06:35:55;11.27;;;3.50;;
4323;SDS011;2175;51.018;6.994;2023-07-13T06:38:21;15.77;;;4.00;;
4323;SDS011;2175;51.018;6.994;2023-07-13T06:40:46;11.43;;;3.40;;
4323;SDS011;2175;51.018;6.994;2023-07-13T06:43:12;13.20;;;3.30;;
4323;SDS011;2175;51.018;6.994;2023-07-13T06:45:45;10.53;;;3.60;;
4323;SDS011;2175;51.018;6.994;2023-07-13T06:48:14;7.20;;;3.13;;
4323;SDS011;2175;51.018;6.994;2023-07-13T06:50:40;10.53;;;3.43;;
4323;SDS011;2175;51.018;6.994;2023-07-13T06:53:06;12.63;;;3.50;;
4323;SDS011;2175;51.018;6.994;2023-07-13T06:55:32;8.30;;;3.10;;
4323;SDS011;2175;51.018;6.994;2023-07-13T06:57:58;8.73;;;3.07;;
4323;SDS011;2175;51.018;6.994;2023-07-13T07:00:23;7.73;;;3.30;;
4323;SDS011;2175;51.018;6.994;2023-07-13T07:02:49;10.37;;;3.50;;
4323;SDS011;2175;51.018;6.994;2023-07-13T07:05:14;11.60;;;3.50;;
4323;SDS011;2175;51.018;6.994;2023-07-13T07:07:40;8.27;;;3.30;;
4323;SDS011;2175;51.018;6.994;2023-07-13T07:10:06;9.93;;;3.00;;
4323;SDS011;2175;51.018;6.994;2023-07-13T07:12:32;16.07;;;3.90;;
4323;SDS011;2175;51.018;6.994;2023-07-13T07:14:57;19.40;;;3.63;;
4323;SDS011;2175;51.018;6.994;2023-07-13T07:17:23;11.13;;;3.47;;
4323;SDS011;2175;51.018;6.994;2023-07-13T07:19:50;11.70;;;3.53;;
4323;SDS011;2175;51.018;6.994;2023-07-13T07:22:15;9.30;;;3.13;;
4323;SDS011;2175;51.018;6.994;2023-07-13T07:24:41;13.57;;;3.67;;
4323;SDS011;2175;51.018;6.994;2023-07-13T07:27:07;18.40;;;3.40;;
4323;SDS011;2175;51.018;6.994;2023-07-13T07:29:32;12.73;;;3.40;;
4323;SDS011;2175;51.018;6.994;2023-07-13T07:31:58;12.03;;;3.10;;
4323;SDS011;2175;51.018;6.994;2023-07-13T07:34:25;17.20;;;4.00;;
4323;SDS011;2175;51.018;6.994;2023-07-13T07:36:50;16.80;;;4.07;;
4323;SDS011;2175;51.018;6.994;2023-07-13T07:39:16;9.50;;;3.70;;
4323;SDS011;2175;51.018;6.994;2023-07-13T07:41:41;10.27;;;3.87;;
4323;SDS011;2175;51.018;6.994;2023-07-13T07:44:07;11.70;;;3.80;;
4323;SDS011;2175;51.018;6.994;2023-07-13T07:46:34;20.47;;;4.40;;
4323;SDS011;2175;51.018;6.994;2023-07-13T07:49:00;10.60;;;3.57;;
4323;SDS011;2175;51.018;6.994;2023-07-13T07:51:26;11.87;;;3.33;;
4323;SDS011;2175;51.018;6.994;2023-07-13T07:53:51;13.30;;;4.30;;
4323;SDS011;2175;51.018;6.994;2023-07-13T07:56:17;9.10;;;3.10;;
4323;SDS011;2175;51.018;6.994;2023-07-13T07:58:43;11.23;;;3.37;;
4323;SDS011;2175;51.018;6.994;2023-07-13T08:01:09;12.57;;;3.20;;
4323;SDS011;2175;51.018;6.994;2023-07-13T08:03:35;13.53;;;3.00;;
4323;SDS011;2175;51.018;6.994;2023-07-13T08:06:00;11.83;;;3.47;;
4323;SDS011;2175;51.018;6.994;2023-07-13T08:08:26;10.67;;;3.40;;
4323;SDS011;2175;51.018;6.994;2023-07-13T08:10:52;8.57;;;3.27;;
4323;SDS011;2175;51.018;6.994;2023-07-13T08:13:18;20.27;;;3.90;;
4323;SDS011;2175;51.018;6.994;2023-07-13T08:15:44;6.90;;;3.23;;
4323;SDS011;2175;51.018;6.994;2023-07-13T08:18:11;9.30;;;3.10;;
4323;SDS011;2175;51.018;6.994;2023-07-13T08:20:37;9.40;;;3.10;;
4323;SDS011;2175;51.018;6.994;2023-07-13T08:23:04;9.23;;;3.43;;
4323;SDS011;2175;51.018;6.994;2023-07-13T08:25:29;9.07;;;3.70;;
4323;SDS011;2175;51.018;6.994;2023-07-13T08:27:55;7.10;;;3.43;;
4323;SDS011;2175;51.018;6.994;2023-07-13T08:30:21;12.30;;;3.63;;
4323;SDS011;2175;51.018;6.994;2023-07-13T08:32:46;7.20;;;3.30;;
4323;SDS011;2175;51.018;6.994;2023-07-13T08:35:12;13.83;;;3.00;;
4323;SDS011;2175;51.018;6.994;2023-07-13T08:37:39;12.33;;;3.60;;
4323;SDS011;2175;51.018;6.994;2023-07-13T08:40:04;10.00;;;3.00;;
4323;SDS011;2175;51.018;6.994;2023-07-13T08:42:42;19.20;;;3.40;;
4323;SDS011;2175;51.018;6.994;2023-07-13T08:45:24;11.07;;;3.17;;
4323;SDS011;2175;51.018;6.994;2023-07-13T08:50:47;11.13;;;3.40;;
4323;SDS011;2175;51.018;6.994;2023-07-13T08:53:20;8.63;;;3.27;;
4323;SDS011;2175;51.018;6.994;2023-07-13T08:55:48;8.83;;;3.20;;
4323;SDS011;2175;51.018;6.994;2023-07-13T08:58:22;8.43;;;3.03;;
4323;SDS011;2175;51.018;6.994;2023-07-13T09:01:26;11.83;;;2.90;;
4323;SDS011;2175;51.018;6.994;2023-07-13T09:04:12;13.33;;;3.60;;
4323;SDS011;2175;51.018;6.994;2023-07-13T09:09:39;9.97;;;3.37;;
4323;SDS011;2175;51.018;6.994;2023-07-13T09:14:49;7.67;;;2.77;;
4323;SDS011;2175;51.018;6.994;2023-07-13T09:17:18;14.43;;;3.20;;
4323;SDS011;2175;51.018;6.994;2023-07-13T09:20:10;7.13;;;3.03;;
4323;SDS011;2175;51.018;6.994;2023-07-13T09:22:59;9.67;;;3.10;;
4323;SDS011;2175;51.018;6.994;2023-07-13T09:25:31;9.93;;;3.00;;
4323;SDS011;2175;51.018;6.994;2023-07-13T09:28:00;11.20;;;3.20;;
4323;SDS011;2175;51.018;6.994;2023-07-13T09:30:42;9.50;;;3.17;;
4323;SDS011;2175;51.018;6.994;2023-07-13T09:33:16;7.20;;;3.00;;
4323;SDS011;2175;51.018;6.994;2023-07-13T09:35:42;7.20;;;2.70;;
4323;SDS011;2175;51.018;6.994;2023-07-13T09:38:12;7.23;;;2.57;;
4323;SDS011;2175;51.018;6.994;2023-07-13T09:43:26;6.83;;;2.67;;
4323;SDS011;2175;51.018;6.994;2023-07-13T09:45:53;6.27;;;2.60;;
4323;SDS011;2175;51.018;6.994;2023-07-13T09:48:20;11.90;;;3.10;;
4323;SDS011;2175;51.018;6.994;2023-07-13T09:50:46;6.53;;;2.80;;
4323;SDS011;2175;51.018;6.994;2023-07-13T09:53:13;4.60;;;2.40;;
4323;SDS011;2175;51.018;6.994;2023-07-13T09:55:42;9.80;;;3.10;;
4323;SDS011;2175;51.018;6.994;2023-07-13T09:58:14;8.00;;;3.00;;
4323;SDS011;2175;51.018;6.994;2023-07-13T10:00:54;4.20;;;2.70;;
4323;SDS011;2175;51.018;6.994;2023-07-13T10:03:29;6.93;;;2.50;;
4323;SDS011;2175;51.018;6.994;2023-07-13T10:06:09;11.27;;;2.87;;
4323;SDS011;2175;51.018;6.994;2023-07-13T10:08:37;5.37;;;2.30;;
4323;SDS011;2175;51.018;6.994;2023-07-13T10:11:15;9.10;;;2.90;;
4323;SDS011;2175;51.018;6.994;2023-07-13T10:13:48;7.73;;;2.60;;
4323;SDS011;2175;51.018;6.994;2023-07-13T10:16:21;6.47;;;2.57;;
4323;SDS011;2175;51.018;6.994;2023-07-13T10:18:58;8.23;;;2.73;;
4323;SDS011;2175;51.018;6.994;2023-07-13T10:21:28;9.10;;;3.27;;
4323;SDS011;2175;51.018;6.994;2023-07-13T10:26:46;6.50;;;2.70;;
4323;SDS011;2175;51.018;6.994;2023-07-13T10:29:26;7.30;;;2.57;;
4323;SDS011;2175;51.018;6.994;2023-07-13T10:31:53;4.33;;;2.40;;
4323;SDS011;2175;51.018;6.994;2023-07-13T10:34:19;5.90;;;2.47;;
4323;SDS011;2175;51.018;6.994;2023-07-13T10:36:46;7.43;;;2.57;;
4323;SDS011;2175;51.018;6.994;2023-07-13T10:39:18;10.33;;;2.63;;
4323;SDS011;2175;51.018;6.994;2023-07-13T10:41:46;5.63;;;2.53;;
4323;SDS011;2175;51.018;6.994;2023-07-13T10:44:26;10.70;;;3.00;;
4323;SDS011;2175;51.018;6.994;2023-07-13T10:46:56;8.73;;;2.63;;
4323;SDS011;2175;51.018;6.994;2023-07-13T10:49:26;8.53;;;2.70;;
4323;SDS011;2175;51.018;6.994;2023-07-13T10:51:53;7.70;;;2.83;;
4323;SDS011;2175;51.018;6.994;2023-07-13T10:54:20;5.80;;;2.50;;
4323;SDS011;2175;51.018;6.994;2023-07-13T10:59:41;5.23;;;2.53;;
4323;SDS011;2175;51.018;6.994;2023-07-13T11:02:25;5.90;;;2.23;;
4323;SDS011;2175;51.018;6.994;2023-07-13T11:04:53;5.93;;;2.40;;
4323;SDS011;2175;51.018;6.994;2023-07-13T11:09:53;7.93;;;2.60;;
4323;SDS011;2175;51.018;6.994;2023-07-13T11:22:42;8.37;;;2.90;;
4323;SDS011;2175;51.018;6.994;2023-07-13T11:28:15;6.50;;;2.60;;
4323;SDS011;2175;51.018;6.994;2023-07-13T11:30:48;7.30;;;2.37;;
4323;SDS011;2175;51.018;6.994;2023-07-13T11:33:24;6.47;;;2.87;;
4323;SDS011;2175;51.018;6.994;2023-07-13T11:36:05;5.13;;;2.20;;
4323;SDS011;2175;51.018;6.994;2023-07-13T11:38:49;6.50;;;2.30;;
4323;SDS011;2175;51.018;6.994;2023-07-13T11:41:25;5.13;;;2.20;;
4323;SDS011;2175;51.018;6.994;2023-07-13T11:44:10;8.33;;;2.57;;
4323;SDS011;2175;51.018;6.994;2023-07-13T11:46:50;7.10;;;2.67;;
4323;SDS011;2175;51.018;6.994;2023-07-13T11:49:19;8.30;;;2.60;;
4323;SDS011;2175;51.018;6.994;2023-07-13T11:51:46;5.20;;;2.20;;
4323;SDS011;2175;51.018;6.994;2023-07-13T11:54:20;6.67;;;2.50;;
4323;SDS011;2175;51.018;6.994;2023-07-13T11:56:51;6.80;;;2.80;;
4323;SDS011;2175;51.018;6.994;2023-07-13T11:59:19;7.07;;;2.63;;
4323;SDS011;2175;51.018;6.994;2023-07-13T12:01:49;6.80;;;2.40;;
4323;SDS011;2175;51.018;6.994;2023-07-13T12:04:21;7.73;;;2.80;;
4323;SDS011;2175;51.018;6.994;2023-07-13T12:07:06;4.20;;;2.20;;
4323;SDS011;2175;51.018;6.994;2023-07-13T12:09:39;8.60;;;2.50;;
4323;SDS011;2175;51.018;6.994;2023-07-13T12:12:28;5.47;;;2.50;;
4323;SDS011;2175;51.018;6.994;2023-07-13T12:14:53;6.90;;;2.70;;
4323;SDS011;2175;51.018;6.994;2023-07-13T12:17:21;7.60;;;3.13;;
4323;SDS011;2175;51.018;6.994;2023-07-13T12:19:48;13.53;;;2.77;;
4323;SDS011;2175;51.018;6.994;2023-07-13T12:22:16;5.90;;;2.43;;
4323;SDS011;2175;51.018;6.994;2023-07-13T12:24:43;5.83;;;2.47;;
4323;SDS011;2175;51.018;6.994;2023-07-13T12:27:20;5.40;;;2.40;;
4323;SDS011;2175;51.018;6.994;2023-07-13T12:29:51;8.57;;;3.27;;
4323;SDS011;2175;51.018;6.994;2023-07-13T12:32:23;7.70;;;2.27;;
4323;SDS011;2175;51.018;6.994;2023-07-13T12:34:54;6.43;;;2.30;;
4323;SDS011;2175;51.018;6.994;2023-07-13T12:37:28;7.17;;;2.90;;
4323;SDS011;2175;51.018;6.994;2023-07-13T12:39:56;5.03;;;2.80;;
4323;SDS011;2175;51.018;6.994;2023-07-13T12:45:00;6.03;;;2.67;;
4323;SDS011;2175;51.018;6.994;2023-07-13T12:47:28;6.43;;;2.70;;
4323;SDS011;2175;51.018;6.994;2023-07-13T12:49:55;6.27;;;2.53;;
4323;SDS011;2175;51.018;6.994;2023-07-13T12:52:23;5.57;;;2.60;;
4323;SDS011;2175;51.018;6.994;2023-07-13T12:55:13;5.53;;;2.53;;
4323;SDS011;2175;51.018;6.994;2023-07-13T12:57:44;9.53;;;2.30;;
4323;SDS011;2175;51.018;6.994;2023-07-13T13:00:23;3.97;;;2.13;;
4323;SDS011;2175;51.018;6.994;2023-07-13T13:03:02;8.77;;;2.77;;
4323;SDS011;2175;51.018;6.994;2023-07-13T13:05:59;7.37;;;2.50;;
4323;SDS011;2175;51.018;6.994;2023-07-13T13:08:27;7.70;;;2.80;;
4323;SDS011;2175;51.018;6.994;2023-07-13T13:10:53;10.27;;;2.47;;
4323;SDS011;2175;51.018;6.994;2023-07-13T13:13:19;4.57;;;2.40;;
4323;SDS011;2175;51.018;6.994;2023-07-13T13:15:45;5.27;;;2.70;;
4323;SDS011;2175;51.018;6.994;2023-07-13T13:18:17;7.70;;;2.57;;
4323;SDS011;2175;51.018;6.994;2023-07-13T13:20:49;9.70;;;2.33;;
4323;SDS011;2175;51.018;6.994;2023-07-13T13:23:16;5.20;;;2.37;;
4323;SDS011;2175;51.018;6.994;2023-07-13T13:25:45;5.73;;;2.50;;
4323;SDS011;2175;51.018;6.994;2023-07-13T13:28:17;8.73;;;2.90;;
4323;SDS011;2175;51.018;6.994;2023-07-13T13:30:44;6.07;;;2.60;;
4323;SDS011;2175;51.018;6.994;2023-07-13T13:33:12;5.73;;;2.10;;
4323;SDS011;2175;51.018;6.994;2023-07-13T13:35:40;7.50;;;2.60;;
4323;SDS011;2175;51.018;6.994;2023-07-13T13:41:01;5.63;;;2.10;;
4323;SDS011;2175;51.018;6.994;2023-07-13T13:43:27;4.40;;;2.03;;
4323;SDS011;2175;51.018;6.994;2023-07-13T13:45:57;10.83;;;2.20;;
4323;SDS011;2175;51.018;6.994;2023-07-13T13:48:31;6.67;;;2.37;;
4323;SDS011;2175;51.018;6.994;2023-07-13T13:50:58;6.80;;;2.37;;
4323;SDS011;2175;51.018;6.994;2023-07-13T13:53:25;5.93;;;2.70;;
4323;SDS011;2175;51.018;6.994;2023-07-13T13:55:53;4.67;;;2.17;;
4323;SDS011;2175;51.018;6.994;2023-07-13T13:58:19;4.83;;;2.30;;
4323;SDS011;2175;51.018;6.994;2023-07-13T14:00:45;7.23;;;2.60;;
4323;SDS011;2175;51.018;6.994;2023-07-13T14:03:15;5.00;;;2.33;;
4323;SDS011;2175;51.018;6.994;2023-07-13T14:05:43;4.83;;;2.60;;
4323;SDS011;2175;51.018;6.994;2023-07-13T14:08:12;3.80;;;2.33;;
4323;SDS011;2175;51.018;6.994;2023-07-13T14:10:44;12.80;;;2.53;;
4323;SDS011;2175;51.018;6.994;2023-07-13T14:13:21;9.23;;;2.40;;
4323;SDS011;2175;51.018;6.994;2023-07-13T14:15:52;5.33;;;2.60;;
4323;SDS011;2175;51.018;6.994;2023-07-13T14:18:18;7.13;;;2.50;;
4323;SDS011;2175;51.018;6.994;2023-07-13T14:20:44;3.97;;;2.33;;
4323;SDS011;2175;51.018;6.994;2023-07-13T14:23:15;8.80;;;2.37;;
4323;SDS011;2175;51.018;6.994;2023-07-13T14:25:42;4.90;;;2.20;;
4323;SDS011;2175;51.018;6.994;2023-07-13T14:28:20;3.80;;;2.10;;
4323;SDS011;2175;51.018;6.994;2023-07-13T14:30:50;5.77;;;2.63;;
4323;SDS011;2175;51.018;6.994;2023-07-13T14:33:16;4.67;;;2.10;;
4323;SDS011;2175;51.018;6.994;2023-07-13T14:35:42;3.57;;;2.10;;
4323;SDS011;2175;51.018;6.994;2023-07-13T14:38:15;5.73;;;2.10;;
4323;SDS011;2175;51.018;6.994;2023-07-13T14:40:43;6.17;;;2.50;;
4323;SDS011;2175;51.018;6.994;2023-07-13T14:43:15;4.53;;;2.00;;
4323;SDS011;2175;51.018;6.994;2023-07-13T14:45:43;3.90;;;2.20;;
4323;SDS011;2175;51.018;6.994;2023-07-13T14:48:15;4.60;;;2.57;;
4323;SDS011;2175;51.018;6.994;2023-07-13T14:50:44;8.20;;;2.33;;
4323;SDS011;2175;51.018;6.994;2023-07-13T14:53:10;4.70;;;2.20;;
4323;SDS011;2175;51.018;6.994;2023-07-13T14:55:37;3.70;;;2.03;;
4323;SDS011;2175;51.018;6.994;2023-07-13T14:58:03;6.07;;;2.50;;
4323;SDS011;2175;51.018;6.994;2023-07-13T15:00:29;5.70;;;2.60;;
4323;SDS011;2175;51.018;6.994;2023-07-13T15:02:56;5.50;;;2.10;;
4323;SDS011;2175;51.018;6.994;2023-07-13T15:05:24;4.87;;;2.20;;
4323;SDS011;2175;51.018;6.994;2023-07-13T15:07:55;7.10;;;2.93;;
4323;SDS011;2175;51.018;6.994;2023-07-13T15:10:23;4.50;;;2.30;;
4323;SDS011;2175;51.018;6.994;2023-07-13T15:13:00;9.43;;;2.43;;
4323;SDS011;2175;51.018;6.994;2023-07-13T15:15:37;4.90;;;2.43;;
4323;SDS011;2175;51.018;6.994;2023-07-13T15:18:09;4.33;;;2.23;;
4323;SDS011;2175;51.018;6.994;2023-07-13T15:20:36;6.10;;;2.50;;
4323;SDS011;2175;51.018;6.994;2023-07-13T15:23:02;7.80;;;2.53;;
4323;SDS011;2175;51.018;6.994;2023-07-13T15:25:29;6.03;;;2.30;;
4323;SDS011;2175;51.018;6.994;2023-07-13T15:27:58;5.30;;;2.43;;
4323;SDS011;2175;51.018;6.994;2023-07-13T15:30:28;5.27;;;2.23;;
4323;SDS011;2175;51.018;6.994;2023-07-13T15:33:05;11.63;;;2.57;;
4323;SDS011;2175;51.018;6.994;2023-07-13T15:35:36;4.77;;;2.53;;
4323;SDS011;2175;51.018;6.994;2023-07-13T15:38:10;5.23;;;2.50;;
4323;SDS011;2175;51.018;6.994;2023-07-13T15:40:40;6.50;;;2.10;;
4323;SDS011;2175;51.018;6.994;2023-07-13T15:43:10;4.50;;;2.50;;
4323;SDS011;2175;51.018;6.994;2023-07-13T15:45:36;4.70;;;2.30;;
4323;SDS011;2175;51.018;6.994;2023-07-13T15:48:08;4.67;;;2.53;;
4323;SDS011;2175;51.018;6.994;2023-07-13T15:50:50;7.87;;;2.80;;
4323;SDS011;2175;51.018;6.994;2023-07-13T15:53:19;8.47;;;3.20;;
4323;SDS011;2175;51.018;6.994;2023-07-13T15:55:49;15.57;;;5.07;;
4323;SDS011;2175;51.018;6.994;2023-07-13T15:58:16;10.07;;;4.00;;